createdAt,value
2019-04-07T00:00:46.502Z,92168.15
2019-04-07T00:06:35.270Z,92170.65
2019-04-07T00:14:59.920Z,92165.41
2019-04-07T00:20:30.874Z,92162.73
2019-04-07T00:23:10.693Z,92164.63
2019-04-07T00:25:50.947Z,92161.31
2019-04-07T00:28:31.273Z,92164.13
2019-04-07T00:31:18.218Z,92158.55
2019-04-07T00:39:45.096Z,92159.95
2019-04-07T00:42:13.569Z,92165.22
2019-04-07T00:44:42.152Z,92156.42
2019-04-07T00:47:21.923Z,92159.16
2019-04-07T00:53:11.168Z,92158.71
2019-04-07T00:56:20.471Z,92159.25
2019-04-07T00:58:55.906Z,92161.92
2019-04-07T01:01:24.552Z,92160.34
2019-04-07T01:04:03.747Z,92156.30
2019-04-07T01:06:31.989Z,92153.05
2019-04-07T01:12:20.417Z,92163.38
2019-04-07T01:14:57.137Z,92161.48
2019-04-07T01:17:24.753Z,92162.84
2019-04-07T01:19:52.940Z,92162.84
2019-04-07T01:29:06.286Z,92170.78
2019-04-07T01:37:16.231Z,92172.14
2019-04-07T01:40:25.645Z,92173.00
2019-04-07T01:43:20.711Z,92171.25
2019-04-07T01:46:28.942Z,92171.00
2019-04-07T01:49:16.354Z,92169.70
2019-04-07T01:52:12.958Z,92162.59
2019-04-07T01:55:32.236Z,92165.72
2019-04-07T02:01:40.096Z,92165.72
2019-04-07T02:04:48.026Z,92163.03
2019-04-07T02:07:35.921Z,92157.59
2019-04-07T02:10:44.640Z,92147.84
2019-04-07T02:16:53.101Z,92142.42
2019-04-07T02:19:36.193Z,92142.92
2019-04-07T02:22:27.690Z,92146.19
2019-04-07T02:25:03.495Z,92146.62
2019-04-07T02:27:46.784Z,92147.45
2019-04-07T02:33:55.124Z,92134.92
2019-04-07T02:37:04.663Z,92135.11
2019-04-07T02:42:57.719Z,92138.16
2019-04-07T02:45:45.532Z,92131.93
2019-04-07T02:48:33.739Z,92135.53
2019-04-07T02:51:54.170Z,92145.05
2019-04-07T02:54:38.312Z,92147.49
2019-04-07T02:57:26.128Z,92144.58
2019-04-07T03:03:41.464Z,92153.81
2019-04-07T03:06:39.174Z,92154.28
2019-04-07T03:12:45.411Z,92156.49
2019-04-07T03:18:42.461Z,92156.90
2019-04-07T03:21:33.218Z,92165.00
2019-04-07T03:24:21.033Z,92165.39
2019-04-07T03:27:20.223Z,92163.56
2019-04-07T03:30:09.259Z,92162.87
2019-04-07T03:33:26.201Z,92160.34
2019-04-07T03:36:29.175Z,92167.84
2019-04-07T03:39:20.448Z,92171.09
2019-04-07T03:42:15.707Z,92178.22
2019-04-07T03:44:59.085Z,92178.03
2019-04-07T03:51:06.764Z,92182.91
2019-04-07T03:53:54.087Z,92182.36
2019-04-07T04:00:02.296Z,92174.22
2019-04-07T04:02:50.560Z,92183.56
2019-04-07T04:05:52.109Z,92181.28
2019-04-07T04:11:20.240Z,92184.48
2019-04-07T04:14:36.408Z,92180.20
2019-04-07T04:17:16.551Z,92179.59
2019-04-07T04:19:44.927Z,92185.81
2019-04-07T04:22:14.144Z,92188.84
2019-04-07T04:24:43.632Z,92188.05
2019-04-07T04:33:33.138Z,92192.75
2019-04-07T04:36:01.341Z,92190.91
2019-04-07T04:38:29.903Z,92189.02
2019-04-07T04:40:58.621Z,92200.48
2019-04-07T04:43:27.561Z,92200.30
2019-04-07T04:46:36.783Z,92200.53
2019-04-07T04:52:18.067Z,92211.72
2019-04-07T05:01:26.618Z,92217.70
2019-04-07T05:03:54.497Z,92223.22
2019-04-07T05:06:22.753Z,92222.29
2019-04-07T05:08:51.212Z,92224.91
2019-04-07T05:11:30.704Z,92222.96
2019-04-07T05:13:59.296Z,92223.52
2019-04-07T05:16:27.622Z,92228.13
2019-04-07T05:22:38.547Z,92228.61
2019-04-07T05:25:07.146Z,92229.78
2019-04-07T05:27:54.653Z,92233.58
2019-04-07T05:30:23.518Z,92229.02
2019-04-07T05:33:32.041Z,92230.22
2019-04-07T05:36:12.227Z,92235.19
2019-04-07T05:38:40.946Z,92241.08
2019-04-07T05:43:55.839Z,92243.42
2019-04-07T05:46:25.043Z,92251.22
2019-04-07T05:54:56.174Z,92250.88
2019-04-07T06:00:33.797Z,92242.98
2019-04-07T06:03:13.062Z,92237.27
2019-04-07T06:05:52.837Z,92238.30
2019-04-07T06:08:29.458Z,92244.16
2019-04-07T06:14:40.138Z,92248.65
2019-04-07T06:23:02.019Z,92256.08
2019-04-07T06:31:33.947Z,92266.20
2019-04-07T06:37:02.411Z,92268.11
2019-04-07T06:39:39.089Z,92262.05
2019-04-07T06:42:25.773Z,92264.52
2019-04-07T06:44:54.325Z,92259.06
2019-04-07T06:47:42.047Z,92259.02
2019-04-07T06:50:57.782Z,92257.34
2019-04-07T06:59:54.542Z,92255.50
2019-04-07T07:03:04.159Z,92254.70
2019-04-07T07:05:57.495Z,92251.83
2019-04-07T07:08:54.192Z,92247.41
2019-04-07T07:12:18.674Z,92256.45
2019-04-07T07:18:23.716Z,92252.57
2019-04-07T07:27:08.531Z,92246.02
2019-04-07T07:32:56.432Z,92249.95
2019-04-07T07:35:32.314Z,92247.12
2019-04-07T07:38:00.572Z,92249.41
2019-04-07T07:43:38.170Z,92246.86
2019-04-07T07:46:06.811Z,92243.65
2019-04-07T07:48:42.824Z,92250.73
2019-04-07T07:51:50.738Z,92241.61
2019-04-07T07:54:31.562Z,92238.97
2019-04-07T08:00:21.026Z,92247.70
2019-04-07T08:06:02.095Z,92250.80
2019-04-07T08:08:30.049Z,92253.83
2019-04-07T08:11:38.975Z,92261.53
2019-04-07T08:14:18.066Z,92259.84
2019-04-07T08:16:55.449Z,92255.91
2019-04-07T08:19:38.211Z,92266.39
2019-04-07T08:22:07.692Z,92263.06
2019-04-07T08:27:45.658Z,92260.88
2019-04-07T08:30:54.430Z,92261.50
2019-04-07T08:33:30.435Z,92262.02
2019-04-07T08:36:42.507Z,92262.39
2019-04-07T08:39:23.933Z,92268.80
2019-04-07T08:42:26.891Z,92266.08
2019-04-07T08:45:26.683Z,92261.83
2019-04-07T08:48:01.277Z,92260.25
2019-04-07T08:53:50.347Z,92256.31
2019-04-07T08:56:18.381Z,92258.34
2019-04-07T08:58:46.180Z,92260.98
2019-04-07T09:01:54.806Z,92260.44
2019-04-07T09:04:24.141Z,92259.64
2019-04-07T09:07:33.477Z,92256.70
2019-04-07T09:10:20.437Z,92252.50
2019-04-07T09:12:47.381Z,92262.13
2019-04-07T09:15:55.709Z,92265.33
2019-04-07T09:18:52.241Z,92259.57
2019-04-07T09:21:42.024Z,92266.17
2019-04-07T09:24:34.907Z,92263.82
2019-04-07T09:27:23.451Z,92263.64
2019-04-07T09:30:17.841Z,92267.92
2019-04-07T09:33:26.145Z,92274.69
2019-04-07T09:36:09.054Z,92280.51
2019-04-07T09:39:04.035Z,92271.33
2019-04-07T09:42:10.645Z,92267.70
2019-04-07T09:44:46.760Z,92268.86
2019-04-07T09:50:36.426Z,92264.27
2019-04-07T09:53:48.812Z,92266.85
2019-04-07T09:56:40.683Z,92267.09
2019-04-07T09:59:28.541Z,92266.55
2019-04-07T10:02:16.483Z,92266.33
2019-04-07T10:08:07.158Z,92258.41
2019-04-07T10:11:03.120Z,92269.92
2019-04-07T10:13:51.145Z,92273.95
2019-04-07T10:16:39.396Z,92280.12
2019-04-07T10:22:42.982Z,92283.67
2019-04-07T10:25:37.928Z,92283.52
2019-04-07T10:31:32.754Z,92284.48
2019-04-07T10:34:28.431Z,92280.02
2019-04-07T10:37:06.819Z,92273.23
2019-04-07T10:39:57.903Z,92280.56
2019-04-07T10:42:50.251Z,92287.30
2019-04-07T10:45:28.422Z,92287.95
2019-04-07T10:51:45.838Z,92283.50
2019-04-07T10:54:54.549Z,92286.19
2019-04-07T11:00:15.753Z,92282.44
2019-04-07T11:05:43.235Z,92284.20
2019-04-07T11:11:58.893Z,92284.38
2019-04-07T11:14:46.657Z,92281.87
2019-04-07T11:17:34.401Z,92284.91
2019-04-07T11:23:31.917Z,92272.78
2019-04-07T11:29:00.137Z,92275.27
2019-04-07T11:31:48.469Z,92274.88
2019-04-07T11:35:02.840Z,92280.05
2019-04-07T11:40:53.534Z,92275.66
2019-04-07T11:44:00.731Z,92274.55
2019-04-07T11:46:48.390Z,92278.34
2019-04-07T11:49:55.302Z,92282.44
2019-04-07T11:52:42.334Z,92282.44
2019-04-07T11:55:18.421Z,92272.78
2019-04-07T11:58:26.090Z,92274.76
2019-04-07T12:01:01.288Z,92284.44
2019-04-07T12:04:09.317Z,92286.17
2019-04-07T12:10:17.896Z,92290.16
2019-04-07T12:13:10.228Z,92295.06
2019-04-07T12:16:05.627Z,92290.80
2019-04-07T12:18:54.495Z,92296.69
2019-04-07T12:21:43.775Z,92297.94
2019-04-07T12:24:39.341Z,92300.72
2019-04-07T12:27:27.090Z,92305.86
2019-04-07T12:30:15.448Z,92303.86
2019-04-07T12:33:04.995Z,92303.61
2019-04-07T12:36:26.589Z,92312.52
2019-04-07T12:39:19.029Z,92306.88
2019-04-07T12:42:08.368Z,92310.66
2019-04-07T12:47:57.118Z,92311.75
2019-04-07T12:53:45.813Z,92309.39
2019-04-07T12:56:34.244Z,92315.14
2019-04-07T12:59:29.372Z,92311.24
2019-04-07T13:02:19.170Z,92307.94
2019-04-07T13:05:13.259Z,92307.22
2019-04-07T13:08:24.122Z,92305.69
2019-04-07T13:11:26.557Z,92305.06
2019-04-07T13:14:09.851Z,92307.74
2019-04-07T13:17:04.125Z,92306.75
2019-04-07T13:19:51.442Z,92312.20
2019-04-07T13:22:58.731Z,92313.03
2019-04-07T13:26:07.730Z,92317.59
2019-04-07T13:29:02.920Z,92318.52
2019-04-07T13:37:53.347Z,92325.69
2019-04-07T13:40:44.087Z,92319.09
2019-04-07T13:49:38.139Z,92326.27
2019-04-07T13:52:26.078Z,92328.24
2019-04-07T13:55:14.114Z,92327.68
2019-04-07T13:57:59.512Z,92323.86
2019-04-07T14:00:53.141Z,92324.91
2019-04-07T14:03:40.722Z,92330.20
2019-04-07T14:06:28.368Z,92322.98
2019-04-07T14:09:15.889Z,92318.32
2019-04-07T14:12:22.749Z,92317.69
2019-04-07T14:15:10.519Z,92326.34
2019-04-07T14:17:58.800Z,92326.28
2019-04-07T14:20:46.240Z,92327.58
2019-04-07T14:23:26.125Z,92329.08
2019-04-07T14:26:14.003Z,92330.72
2019-04-07T14:28:58.816Z,92329.56
2019-04-07T14:31:57.651Z,92330.97
2019-04-07T14:34:45.560Z,92333.09
2019-04-07T14:37:40.629Z,92335.87
2019-04-07T14:40:49.843Z,92335.66
2019-04-07T14:46:40.153Z,92339.06
2019-04-07T14:52:44.725Z,92328.96
2019-04-07T14:55:39.952Z,92337.73
2019-04-07T14:58:28.100Z,92341.74
2019-04-07T15:01:16.030Z,92349.91
2019-04-07T15:03:44.248Z,92348.73
2019-04-07T15:06:52.461Z,92351.69
2019-04-07T15:09:40.112Z,92344.52
2019-04-07T15:12:28.270Z,92347.87
2019-04-07T15:15:37.075Z,92351.27
2019-04-07T15:18:05.388Z,92353.06
2019-04-07T15:20:34.346Z,92355.13
2019-04-07T15:23:13.551Z,92357.36
2019-04-07T15:28:44.681Z,92357.14
2019-04-07T15:31:13.023Z,92358.85
2019-04-07T15:36:51.020Z,92355.09
2019-04-07T15:39:30.287Z,92360.66
2019-04-07T15:42:33.939Z,92368.52
2019-04-07T15:44:54.906Z,92365.98
2019-04-07T15:47:23.125Z,92366.17
2019-04-07T15:50:10.413Z,92366.90
2019-04-07T15:52:41.526Z,92370.91
2019-04-07T15:55:56.635Z,92376.64
2019-04-07T16:01:28.618Z,92380.38
2019-04-07T16:04:37.178Z,92384.03
2019-04-07T16:13:40.202Z,92391.95
2019-04-07T16:19:13.494Z,92392.02
2019-04-07T16:21:42.169Z,92397.93
2019-04-07T16:27:23.806Z,92388.09
2019-04-07T16:33:12.434Z,92393.52
2019-04-07T16:35:41.049Z,92399.58
2019-04-07T16:38:17.655Z,92408.27
2019-04-07T16:46:34.386Z,92411.30
2019-04-07T16:49:46.659Z,92412.64
2019-04-07T16:52:20.436Z,92417.66
2019-04-07T16:54:48.166Z,92418.48
2019-04-07T17:00:38.207Z,92417.95
2019-04-07T17:03:54.315Z,92428.86
2019-04-07T17:06:22.968Z,92428.27
2019-04-07T17:11:53.644Z,92433.03
2019-04-07T17:14:22.555Z,92435.61
2019-04-07T17:16:59.015Z,92443.22
2019-04-07T17:20:07.439Z,92440.94
2019-04-07T17:22:36.986Z,92440.38
2019-04-07T17:25:14.231Z,92445.34
2019-04-07T17:31:09.928Z,92448.75
2019-04-07T17:33:39.473Z,92456.73
2019-04-07T17:36:08.948Z,92459.92
2019-04-07T17:42:11.983Z,92458.73
2019-04-07T17:45:02.258Z,92460.73
2019-04-07T17:51:12.517Z,92464.40
2019-04-07T17:57:27.122Z,92473.23
2019-04-07T18:00:41.387Z,92474.33
2019-04-07T18:03:41.252Z,92480.06
2019-04-07T18:06:34.491Z,92487.12
2019-04-07T18:09:29.831Z,92488.04
2019-04-07T18:12:38.952Z,92489.86
2019-04-07T18:15:36.286Z,92496.90
2019-04-07T18:18:30.400Z,92502.84
2019-04-07T18:21:37.600Z,92507.91
2019-04-07T18:24:46.408Z,92502.78
2019-04-07T18:27:34.266Z,92500.11
2019-04-07T18:30:42.922Z,92506.47
2019-04-07T18:33:30.331Z,92506.64
2019-04-07T18:36:38.964Z,92505.66
2019-04-07T18:39:27.501Z,92511.70
2019-04-07T18:42:36.212Z,92515.44
2019-04-07T18:45:23.548Z,92522.09
2019-04-07T18:48:12.413Z,92526.67
2019-04-07T18:51:10.628Z,92526.98
2019-04-07T18:54:24.817Z,92528.40
2019-04-07T18:57:20.559Z,92537.45
2019-04-07T19:00:31.493Z,92539.13
2019-04-07T19:03:51.161Z,92545.53
2019-04-07T19:06:46.545Z,92554.34
2019-04-07T19:09:39.386Z,92554.13
2019-04-07T19:12:36.428Z,92568.84
2019-04-07T19:15:17.837Z,92570.50
2019-04-07T19:20:45.745Z,92578.56
2019-04-07T19:23:33.100Z,92577.11
2019-04-07T19:26:32.378Z,92582.42
2019-04-07T19:29:20.373Z,92580.14
2019-04-07T19:32:07.986Z,92585.78
2019-04-07T19:34:55.805Z,92586.71
2019-04-07T19:37:44.308Z,92584.52
2019-04-07T19:40:53.209Z,92586.97
2019-04-07T19:43:37.172Z,92589.16
2019-04-07T19:46:27.142Z,92591.51
2019-04-07T19:49:22.574Z,92592.54
2019-04-07T19:52:16.200Z,92595.34
2019-04-07T19:54:51.583Z,92587.66
2019-04-07T19:57:39.154Z,92591.80
2019-04-07T20:03:50.045Z,92594.97
2019-04-07T20:06:37.229Z,92596.91
2019-04-07T20:12:46.646Z,92604.97
2019-04-07T20:15:57.484Z,92607.63
2019-04-07T20:18:52.010Z,92620.28
2019-04-07T20:21:41.418Z,92613.05
2019-04-07T20:24:38.059Z,92612.05
2019-04-07T20:27:31.941Z,92618.09
2019-04-07T20:30:19.289Z,92609.61
2019-04-07T20:33:29.867Z,92607.64
2019-04-07T20:36:24.127Z,92620.25
2019-04-07T20:39:17.483Z,92614.45
2019-04-07T20:45:13.170Z,92610.53
2019-04-07T20:48:01.652Z,92608.52
2019-04-07T20:51:10.414Z,92613.91
2019-04-07T21:00:03.392Z,92622.27
2019-04-07T21:03:20.325Z,92630.16
2019-04-07T21:06:10.847Z,92635.03
2019-04-07T21:12:19.706Z,92636.22
2019-04-07T21:18:09.420Z,92634.81
2019-04-07T21:21:07.952Z,92631.80
2019-04-07T21:27:08.954Z,92643.38
2019-04-07T21:30:14.730Z,92641.20
2019-04-07T21:33:11.550Z,92641.88
2019-04-07T21:39:00.974Z,92649.53
2019-04-07T21:42:07.469Z,92654.70
2019-04-07T21:44:50.442Z,92644.75
2019-04-07T21:50:58.531Z,92646.31
2019-04-07T21:54:05.652Z,92653.95
2019-04-07T21:56:53.965Z,92651.28
2019-04-07T21:59:48.900Z,92654.80
2019-04-07T22:02:40.617Z,92645.34
2019-04-07T22:05:57.232Z,92650.70
2019-04-07T22:08:50.128Z,92650.33
2019-04-07T22:11:22.675Z,92653.58
2019-04-07T22:14:08.722Z,92649.13
2019-04-07T22:17:16.937Z,92651.69
2019-04-07T22:23:09.205Z,92655.23
2019-04-07T22:26:20.236Z,92661.31
2019-04-07T22:28:59.856Z,92665.32
2019-04-07T22:34:09.844Z,92669.55
2019-04-07T22:48:58.323Z,92672.20
2019-04-07T22:54:05.768Z,92673.05
2019-04-07T23:02:44.651Z,92674.13
2019-04-07T23:05:12.956Z,92678.66
2019-04-07T23:10:42.190Z,92676.31
2019-04-07T23:13:21.705Z,92681.25
2019-04-07T23:16:10.834Z,92678.20
2019-04-07T23:18:31.811Z,92674.25
2019-04-07T23:20:59.898Z,92680.17
2019-04-07T23:26:17.924Z,92675.40
2019-04-07T23:28:47.173Z,92675.19
2019-04-07T23:31:15.899Z,92679.96
2019-04-07T23:34:25.350Z,92673.84
2019-04-07T23:37:01.529Z,92676.72
2019-04-07T23:39:49.600Z,92678.56
2019-04-07T23:42:28.717Z,92685.63
2019-04-07T23:44:56.999Z,92691.52
2019-04-07T23:47:24.917Z,92691.56
2019-04-07T23:50:12.704Z,92695.34
2019-04-07T23:53:13.021Z,92691.19
2019-04-07T23:55:42.172Z,92693.85
2019-04-07T23:58:18.780Z,92691.75
